Погода Гуймарасна неделю

Себу, Филиппины

04 - 10 марта
  • 04марта
    Сегодня
    +24°
    +37°
    Облачно с прояснениями
    ВремяПогодаТемператураВлажностьДавлениеВетер, м/сВероятность осадков
    02:00Практически безоблачно+25°C87 %744 мм4.5 м/с13 %
    05:00Облачно с прояснениями+24°C91 %743 мм4.4 м/с9 %
    08:00Облачно с прояснениями+28°C72 %745 мм5.9 м/с6 %
    11:00Небольшая облачность+34°C56 %745 мм5.1 м/с8 %
    14:00Облачно с прояснениями+36°C51 %743 мм4.9 м/с3 %
    17:00Практически безоблачно+32°C59 %742 мм4.8 м/с2 %
    20:00Ясно и безоблачно+28°C71 %743 мм3.9 м/с2 %
    23:00Ясно и безоблачно+26°C76 %744 мм3.3 м/с2 %
  • 05марта
    Вторник
    +24°
    +36°
    Ясно и безоблачно
    ВремяПогодаТемператураВлажностьДавлениеВетер, м/сВероятность осадков
    02:00Ясно и безоблачно+26°C76 %743 мм4.4 м/с2 %
    05:00Ясно и безоблачно+25°C83 %743 мм5.1 м/с2 %
    08:00Ясно и безоблачно+28°C71 %744 мм6.4 м/с2 %
    11:00Ясно и безоблачно+33°C51 %744 мм6.0 м/с2 %
    14:00Ясно и безоблачно+36°C44 %742 мм3.7 м/с2 %
    17:00Ясно и безоблачно+33°C52 %741 мм4.3 м/с2 %
    20:00Ясно и безоблачно+28°C67 %743 мм3.7 м/с2 %
    23:00Практически безоблачно+27°C67 %743 мм3.3 м/с2 %
  • 06марта
    Среда
    +25°
    +37°
    Облачно с прояснениями
    ВремяПогодаТемператураВлажностьДавлениеВетер, м/сВероятность осадков
    02:00Облачно с прояснениями+26°C71 %742 мм3.7 м/с2 %
    05:00Облачно с прояснениями+25°C84 %742 мм4.2 м/с2 %
    08:00Облачно с прояснениями+28°C74 %743 мм4.8 м/с2 %
    11:00Облачно с прояснениями+34°C56 %743 мм4.1 м/с3 %
    14:00Облачно с прояснениями+37°C45 %742 мм3.1 м/с17 %
    17:00Ясно и безоблачно+34°C64 %742 мм2.5 м/с31 %
    20:00Ясно и безоблачно+29°C69 %742 мм3.3 м/с13 %
    23:00Облачно с прояснениями+29°C70 %743 мм3.3 м/с2 %
  • 07марта
    Четверг
    +25°
    +36°
    Облачно с прояснениями
    ВремяПогодаТемператураВлажностьДавлениеВетер, м/сВероятность осадков
    02:00Облачно с прояснениями+27°C76 %742 мм3.8 м/с2 %
    05:00Облачно с прояснениями+26°C88 %742 мм3.8 м/с4 %
    08:00Практически безоблачно+29°C77 %744 мм5.3 м/с5 %
    11:00Небольшая облачность+34°C58 %743 мм6.1 м/с20 %
    14:00Облачно с прояснениями+36°C53 %741 мм6.7 м/с19 %
    17:00Облачно с прояснениями+33°C56 %741 мм6.8 м/с7 %
    20:00Ясно и безоблачно+30°C63 %742 мм5.8 м/с2 %
    23:00Практически безоблачно+27°C79 %743 мм6.2 м/с7 %
  • 08марта
    Пятница
    +24°
    +36°
    Практически безоблачно
    ВремяПогодаТемператураВлажностьДавлениеВетер, м/сВероятность осадков
    02:00Небольшая облачность+26°C87 %742 мм5.0 м/с12 %
    05:00Небольшая облачность+26°C87 %742 мм5.4 м/с6 %
    08:00Облачно с прояснениями+29°C72 %744 мм6.5 м/с5 %
    11:00Практически безоблачно+34°C52 %744 мм7.4 м/с6 %
    14:00Практически безоблачно+36°C45 %742 мм7.3 м/с2 %
    17:00Ясно и безоблачно+33°C47 %742 мм8.0 м/с2 %
    20:00Ясно и безоблачно+29°C59 %743 мм6.0 м/с2 %
    23:00Ясно и безоблачно+27°C74 %744 мм5.3 м/с9 %
Мы используем cookies
Соглашаюсь